TimeCDT,TemperatureF,Dew PointF,Humidity,Sea Level PressureIn,VisibilityMPH,Wind Direction,Wind SpeedMPH,Gust SpeedMPH,PrecipitationIn,Events,Conditions,WindDirDegrees,DateUTC
12:13 AM,56.8,56.3,98,29.89,10.0,East,9.2,-,N/A,Rain,Light Rain,100,2013-09-15 05:13:00
12:33 AM,56.7,56.3,99,29.90,7.0,East,8.1,-,0.02,Rain,Rain,100,2013-09-15 05:33:00
12:53 AM,56.7,56.3,99,29.89,5.0,East,6.9,-,0.08,Rain,Rain,100,2013-09-15 05:53:00
1:14 AM,56.7,56.3,99,29.89,4.0,ESE,8.1,-,0.01,Rain,Rain,120,2013-09-15 06:14:00
1:33 AM,56.3,56.3,100,29.88,5.0,ESE,8.1,-,0.03,Rain,Rain,120,2013-09-15 06:33:00
1:54 AM,56.5,56.3,99,29.88,5.0,ESE,5.8,-,0.06,Rain,Heavy Rain,120,2013-09-15 06:54:00
2:13 AM,56.5,56.3,99,29.88,7.0,ESE,6.9,-,0.02,Rain,Rain,110,2013-09-15 07:13:00
2:34 AM,56.7,56.3,99,29.90,7.0,SE,3.5,-,0.05,Rain,Rain,130,2013-09-15 07:34:00
2:54 AM,56.8,56.5,99,29.90,10.0,ENE,3.5,-,0.06,Rain,Light Rain,70,2013-09-15 07:54:00
3:13 AM,57.0,56.5,98,29.90,5.0,NE,3.5,-,0.03,Rain,Heavy Rain,40,2013-09-15 08:13:00
3:33 AM,56.8,56.5,99,29.90,7.0,NE,3.5,-,0.09,Rain,Rain,40,2013-09-15 08:33:00
3:54 AM,56.8,56.5,99,29.92,10.0,North,3.5,-,0.10,Rain,Light Rain,10,2013-09-15 08:54:00
4:14 AM,57.2,56.7,98,29.93,10.0,North,3.5,-,N/A,Rain,Light Rain,360,2013-09-15 09:14:00
4:33 AM,57.2,56.7,98,29.94,10.0,North,5.8,-,0.01,,Overcast,10,2013-09-15 09:33:00
4:53 AM,57.2,56.7,98,29.94,10.0,North,5.8,-,0.01,,Overcast,10,2013-09-15 09:53:00
5:14 AM,57.2,56.7,98,29.94,10.0,NE,5.8,-,N/A,,Overcast,40,2013-09-15 10:14:00
5:34 AM,57.2,56.7,98,29.95,10.0,North,8.1,-,N/A,,Overcast,10,2013-09-15 10:34:00
5:54 AM,57.2,56.5,97,29.97,10.0,North,9.2,-,N/A,,Overcast,10,2013-09-15 10:54:00
6:13 AM,57.2,56.3,97,29.97,10.0,NNE,10.4,-,N/A,,Overcast,20,2013-09-15 11:13:00
6:34 AM,57.2,56.3,97,29.98,10.0,North,6.9,-,N/A,,Overcast,10,2013-09-15 11:34:00
6:54 AM,56.8,55.8,96,29.99,10.0,North,4.6,-,N/A,,Mostly Cloudy,10,2013-09-15 11:54:00
7:13 AM,57.0,55.9,96,30.00,10.0,North,9.2,-,N/A,,Overcast,10,2013-09-15 12:13:00
7:34 AM,57.2,55.9,96,30.01,10.0,North,6.9,-,N/A,,Overcast,360,2013-09-15 12:34:00
7:54 AM,57.6,56.3,96,30.02,10.0,North,8.1,-,N/A,,Mostly Cloudy,350,2013-09-15 12:54:00
8:13 AM,57.6,56.3,96,30.03,10.0,North,6.9,-,N/A,,Overcast,360,2013-09-15 13:13:00
8:34 AM,57.6,56.1,95,30.04,10.0,North,5.8,-,N/A,,Overcast,360,2013-09-15 13:34:00
8:54 AM,59.0,56.7,92,30.05,10.0,North,8.1,-,N/A,,Overcast,350,2013-09-15 13:54:00
9:14 AM,58.6,55.4,89,30.07,10.0,North,10.4,19.6,N/A,,Overcast,10,2013-09-15 14:14:00
9:34 AM,59.0,55.6,88,30.08,10.0,NNE,9.2,-,N/A,,Overcast,20,2013-09-15 14:34:00
9:53 AM,60.4,55.9,85,30.09,10.0,North,9.2,-,N/A,,Overcast,10,2013-09-15 14:53:00
10:14 AM,61.0,55.8,83,30.09,10.0,North,9.2,18.4,N/A,,Overcast,360,2013-09-15 15:14:00
10:33 AM,60.4,55.4,83,30.11,10.0,North,11.5,-,N/A,,Overcast,10,2013-09-15 15:33:00
10:54 AM,59.9,54.5,82,30.12,10.0,NNE,16.1,20.7,N/A,,Overcast,20,2013-09-15 15:54:00
11:13 AM,60.3,54.7,82,30.12,10.0,NNE,10.4,-,N/A,,Overcast,30,2013-09-15 16:13:00
11:34 AM,60.8,55.4,82,30.13,10.0,NNE,10.4,-,N/A,,Overcast,20,2013-09-15 16:34:00
11:54 AM,62.1,54.7,77,30.14,10.0,North,11.5,-,N/A,,Overcast,10,2013-09-15 16:54:00
12:14 PM,61.7,55.0,79,30.14,10.0,North,9.2,-,N/A,,Overcast,10,2013-09-15 17:14:00
12:34 PM,62.6,55.8,78,30.15,10.0,North,11.5,-,N/A,,Overcast,10,2013-09-15 17:34:00
12:53 PM,62.2,56.3,81,30.16,10.0,North,6.9,-,N/A,,Overcast,10,2013-09-15 17:53:00
1:13 PM,61.3,56.3,83,30.16,10.0,North,9.2,-,N/A,,Overcast,350,2013-09-15 18:13:00
1:34 PM,61.9,56.1,81,30.17,10.0,NNE,10.4,16.1,N/A,,Overcast,20,2013-09-15 18:34:00
1:53 PM,63.7,55.2,74,30.17,10.0,NNE,12.7,20.7,N/A,,Overcast,30,2013-09-15 18:53:00
2:14 PM,64.0,54.3,71,30.18,10.0,North,9.2,18.4,N/A,,Overcast,360,2013-09-15 19:14:00
2:34 PM,63.5,54.3,72,30.19,10.0,North,8.1,-,N/A,,Overcast,10,2013-09-15 19:34:00
2:53 PM,66.6,55.4,67,30.19,10.0,North,8.1,-,N/A,,Mostly Cloudy,10,2013-09-15 19:53:00
3:13 PM,66.0,54.3,66,30.19,10.0,North,11.5,20.7,N/A,,Mostly Cloudy,10,2013-09-15 20:13:00
3:34 PM,66.0,52.9,63,30.19,10.0,North,10.4,18.4,N/A,,Mostly Cloudy,10,2013-09-15 20:34:00
3:53 PM,67.5,53.1,60,30.20,10.0,North,10.4,19.6,N/A,,Mostly Cloudy,350,2013-09-15 20:53:00
4:14 PM,68.2,53.8,60,30.20,10.0,NNW,11.5,19.6,N/A,,Mostly Cloudy,340,2013-09-15 21:14:00
4:33 PM,66.6,53.6,63,30.21,10.0,North,5.8,-,N/A,,Mostly Cloudy,360,2013-09-15 21:33:00
4:54 PM,67.5,53.8,61,30.21,10.0,North,6.9,-,N/A,,Scattered Clouds,350,2013-09-15 21:54:00
5:14 PM,67.3,53.1,60,30.22,10.0,North,8.1,-,N/A,,Scattered Clouds,350,2013-09-15 22:14:00
5:34 PM,66.7,53.8,63,30.22,10.0,North,8.1,-,N/A,,Scattered Clouds,360,2013-09-15 22:34:00
5:54 PM,64.6,53.1,66,30.23,10.0,North,9.2,-,N/A,,Scattered Clouds,350,2013-09-15 22:54:00
6:13 PM,63.3,53.4,70,30.24,10.0,North,6.9,16.1,N/A,,Mostly Cloudy,350,2013-09-15 23:13:00
6:33 PM,63.0,53.1,70,30.24,10.0,NNW,10.4,16.1,N/A,,Scattered Clouds,340,2013-09-15 23:33:00
6:53 PM,61.9,53.2,73,30.25,10.0,North,6.9,-,N/A,,Clear,360,2013-09-15 23:53:00
7:14 PM,60.3,53.1,77,30.25,10.0,North,4.6,-,N/A,,Clear,350,2013-09-16 00:14:00
7:33 PM,58.6,52.9,81,30.26,10.0,North,6.9,-,N/A,,Clear,350,2013-09-16 00:33:00
7:53 PM,57.2,52.5,84,30.27,10.0,North,5.8,-,N/A,,Clear,350,2013-09-16 00:53:00
8:14 PM,56.3,52.2,86,30.28,10.0,North,5.8,-,N/A,,Clear,350,2013-09-16 01:14:00
8:20 PM,56.3,52.2,86,30.28,10.0,North,4.6,-,N/A,,Scattered Clouds,360,2013-09-16 01:20:00
8:45 PM,55.4,51.8,88,30.29,10.0,North,5.8,-,N/A,,Scattered Clouds,350,2013-09-16 01:45:00
9:05 PM,53.6,51.8,94,30.30,10.0,North,3.5,-,N/A,,Clear,350,2013-09-16 02:05:00
9:25 PM,51.8,50.0,94,30.30,10.0,North,3.5,-,N/A,,Clear,360,2013-09-16 02:25:00
10:05 PM,51.8,50.0,94,30.31,10.0,Calm,Calm,-,N/A,,Clear,0,2013-09-16 03:05:00
10:25 PM,50.0,50.0,100,30.31,10.0,Calm,Calm,-,N/A,,Clear,0,2013-09-16 03:25:00
10:45 PM,50.0,48.2,94,30.32,10.0,NNE,3.5,-,N/A,,Clear,30,2013-09-16 03:45:00
11:05 PM,48.2,48.2,100,30.33,10.0,Calm,Calm,-,N/A,,Clear,0,2013-09-16 04:05:00
11:25 PM,48.2,48.2,100,30.33,10.0,Calm,Calm,-,N/A,,Clear,0,2013-09-16 04:25:00